Time;durP1;ratioP1;P1;durP2;ratioP2;P2;SDS_P1;SDS_P2;PMS_P1;PMS_P2;Temp;Humidity;BMP_temperature;BMP_pressure;BME280_temperature;BME280_humidity;BME280_pressure;Samples;Min_cycle;Max_cycle;Signal;HPM_P1;HPM_P2
2021/12/26 00:00:16;;;;;;;5.30;2.70;;;-2.30;99.90;;;;;;4985656;28;20049;-84
2021/12/26 00:02:42;;;;;;;4.03;2.70;;;-2.30;99.90;;;;;;4970894;28;20042;-83
2021/12/26 00:05:09;;;;;;;5.47;3.45;;;-2.30;99.90;;;;;;4983932;28;20073;-85
2021/12/26 00:07:35;;;;;;;4.57;2.65;;;-2.30;99.90;;;;;;4975693;28;20041;-85
2021/12/26 00:10:00;;;;;;;8.80;2.85;;;-2.30;99.90;;;;;;4974061;28;20042;-84
2021/12/26 00:12:26;;;;;;;3.22;2.25;;;-2.30;99.90;;;;;;5007244;28;20034;-84
2021/12/26 00:14:51;;;;;;;6.50;2.85;;;-2.30;99.90;;;;;;5000020;28;20478;-84
2021/12/26 00:17:17;;;;;;;4.57;2.60;;;-2.30;99.90;;;;;;4966011;28;20521;-85
2021/12/26 00:19:42;;;;;;;5.10;2.85;;;-2.30;99.90;;;;;;4980782;28;20030;-84
2021/12/26 00:22:08;;;;;;;5.45;2.80;;;-2.30;99.90;;;;;;4980861;28;20026;-84
2021/12/26 00:24:35;;;;;;;5.43;3.55;;;-2.20;99.90;;;;;;4969303;28;20581;-85
2021/12/26 00:27:00;;;;;;;3.90;2.60;;;-2.30;99.90;;;;;;4975766;28;20046;-84
2021/12/26 00:29:26;;;;;;;6.95;2.70;;;-2.20;99.90;;;;;;4984905;28;20788;-84
2021/12/26 00:31:51;;;;;;;4.78;2.78;;;-2.20;99.90;;;;;;4985272;28;20189;-84
2021/12/26 00:34:17;;;;;;;3.72;2.38;;;-2.20;99.90;;;;;;4964219;28;20568;-84
2021/12/26 00:36:42;;;;;;;5.28;3.15;;;-2.10;99.90;;;;;;4999915;28;20105;-84
2021/12/26 00:39:09;;;;;;;5.43;2.58;;;-2.10;99.90;;;;;;4986322;28;20433;-85
2021/12/26 00:41:35;;;;;;;4.78;2.70;;;-2.10;99.90;;;;;;4996502;28;20601;-84
2021/12/26 00:44:01;;;;;;;7.20;2.75;;;-2.10;99.90;;;;;;4998941;28;20022;-84
2021/12/26 00:46:27;;;;;;;4.45;2.55;;;-2.10;99.90;;;;;;4968107;28;20033;-84
2021/12/26 00:48:52;;;;;;;5.97;3.17;;;-2.10;99.90;;;;;;4981939;28;20046;-84
2021/12/26 00:51:18;;;;;;;5.55;2.78;;;-2.10;99.90;;;;;;4979720;28;20053;-84
2021/12/26 00:53:43;;;;;;;4.10;2.60;;;-2.10;99.90;;;;;;4987267;28;20026;-84
2021/12/26 00:56:09;;;;;;;4.13;2.97;;;-2.10;99.90;;;;;;4999800;28;20033;-85
2021/12/26 00:58:34;;;;;;;5.05;2.85;;;-2.10;99.90;;;;;;4991055;28;20030;-84
2021/12/26 01:01:00;;;;;;;5.13;3.25;;;-2.10;99.90;;;;;;4978611;28;20022;-84
2021/12/26 01:03:26;;;;;;;7.70;2.97;;;-2.20;99.90;;;;;;4968774;28;20367;-84
2021/12/26 01:05:54;;;;;;;5.45;3.88;;;-2.10;99.90;;;;;;5000865;28;20121;-84
2021/12/26 01:08:22;;;;;;;6.57;3.35;;;-2.10;99.90;;;;;;4953591;28;20049;-84
2021/12/26 01:10:52;;;;;;;3.95;2.35;;;-2.10;99.90;;;;;;4998093;28;20080;-84
2021/12/26 01:13:29;;;;;;;5.53;2.55;;;-2.10;99.90;;;;;;4971060;28;20057;-84
2021/12/26 01:15:57;;;;;;;5.15;2.70;;;-2.00;99.90;;;;;;4966807;28;20073;-84
2021/12/26 01:18:24;;;;;;;4.25;2.00;;;-2.00;99.90;;;;;;5001350;28;20076;-84
2021/12/26 01:20:58;;;;;;;7.32;3.17;;;-2.00;99.90;;;;;;4964919;28;20121;-84
2021/12/26 01:23:25;;;;;;;5.32;2.95;;;-2.00;99.90;;;;;;5007503;28;20056;-84
2021/12/26 01:25:51;;;;;;;4.97;3.13;;;-2.00;99.90;;;;;;4998542;28;20805;-84
2021/12/26 01:28:21;;;;;;;4.28;3.03;;;-2.00;99.90;;;;;;4982492;28;20052;-85
2021/12/26 01:30:46;;;;;;;4.20;2.88;;;-2.00;99.90;;;;;;4999514;28;20069;-85
2021/12/26 01:33:13;;;;;;;5.82;2.58;;;-2.00;99.90;;;;;;4999012;28;20042;-84
2021/12/26 01:35:39;;;;;;;4.32;2.70;;;-2.00;99.90;;;;;;5001392;28;20042;-84
2021/12/26 01:38:06;;;;;;;8.35;2.60;;;-2.00;99.90;;;;;;4970449;28;20057;-84
2021/12/26 01:40:35;;;;;;;3.65;2.40;;;-2.00;99.90;;;;;;4985941;28;20030;-84
2021/12/26 01:43:02;;;;;;;4.65;2.30;;;-2.00;99.90;;;;;;4996308;28;20069;-84
2021/12/26 01:45:28;;;;;;;5.93;3.00;;;-2.00;99.90;;;;;;4985270;28;20552;-84
2021/12/26 01:47:58;;;;;;;5.05;2.35;;;-2.00;99.90;;;;;;4987947;28;20030;-84
2021/12/26 01:50:24;;;;;;;5.18;2.70;;;-2.10;99.90;;;;;;4999213;28;20120;-85
2021/12/26 01:52:49;;;;;;;5.38;2.90;;;-2.00;99.90;;;;;;4966303;28;20546;-85
2021/12/26 01:55:36;;;;;;;5.20;2.60;;;-2.00;99.90;;;;;;4960052;28;20178;-84
2021/12/26 01:58:02;;;;;;;3.70;2.25;;;-2.00;99.90;;;;;;4985275;28;20045;-85
2021/12/26 02:00:27;;;;;;;7.28;2.90;;;-2.00;99.90;;;;;;4985336;28;20030;-85
2021/12/26 02:02:53;;;;;;;4.90;3.00;;;-1.90;99.90;;;;;;4988472;28;20073;-84
2021/12/26 02:05:18;;;;;;;5.95;2.70;;;-1.90;99.90;;;;;;5001262;28;20117;-84
2021/12/26 02:07:44;;;;;;;5.00;3.00;;;-1.90;99.90;;;;;;4979474;28;20070;-84
2021/12/26 02:10:10;;;;;;;5.63;2.60;;;-1.90;99.90;;;;;;4984333;28;20111;-85
2021/12/26 02:12:35;;;;;;;3.75;2.88;;;-1.90;99.90;;;;;;5000010;28;20043;-84
2021/12/26 02:15:01;;;;;;;4.50;2.72;;;-2.00;99.90;;;;;;4968651;28;20031;-85
2021/12/26 02:17:28;;;;;;;5.75;3.00;;;-2.00;99.90;;;;;;5013789;28;20026;-84
2021/12/26 02:20:12;;;;;;;4.70;2.80;;;-2.00;99.90;;;;;;4988284;28;20046;-84
2021/12/26 02:22:40;;;;;;;4.32;2.70;;;-2.00;99.90;;;;;;4979737;28;20564;-85
2021/12/26 02:27:31;;;;;;;6.20;3.40;;;-2.00;99.90;;;;;;4998209;28;20041;-84
2021/12/26 02:30:01;;;;;;;6.55;2.75;;;-2.00;99.90;;;;;;4976572;28;20035;-85
2021/12/26 02:32:28;;;;;;;4.28;2.38;;;-2.00;99.90;;;;;;4987131;28;20413;-85
2021/12/26 02:34:53;;;;;;;5.03;2.63;;;-2.00;99.90;;;;;;4997228;28;20105;-84
2021/12/26 02:37:21;;;;;;;5.25;3.00;;;-2.00;99.90;;;;;;4993725;28;20399;-85
2021/12/26 02:39:46;;;;;;;6.63;3.03;;;-2.00;99.90;;;;;;4992790;28;20026;-84
2021/12/26 02:42:12;;;;;;;4.80;3.08;;;-1.90;99.90;;;;;;4994875;28;20042;-84
2021/12/26 02:44:37;;;;;;;5.18;3.13;;;-2.00;99.90;;;;;;4989144;28;20031;-84
2021/12/26 02:47:03;;;;;;;5.45;2.92;;;-1.90;99.90;;;;;;5000860;28;20099;-84
2021/12/26 02:49:29;;;;;;;4.30;2.80;;;-2.00;99.90;;;;;;5006940;28;20043;-85
2021/12/26 02:51:55;;;;;;;6.00;3.05;;;-1.90;99.90;;;;;;4977824;28;20026;-84
2021/12/26 02:54:23;;;;;;;4.40;2.85;;;-1.90;99.90;;;;;;4977343;28;20030;-84
2021/12/26 02:56:48;;;;;;;7.82;3.10;;;-1.90;99.90;;;;;;4974618;28;20455;-84
2021/12/26 02:59:14;;;;;;;4.72;3.08;;;-1.90;99.90;;;;;;4983245;28;20141;-85
2021/12/26 03:01:39;;;;;;;5.00;2.70;;;-1.90;99.90;;;;;;4985962;28;20034;-85
2021/12/26 03:04:08;;;;;;;5.05;2.80;;;-1.90;99.90;;;;;;4956600;28;20038;-84
2021/12/26 03:06:55;;;;;;;5.15;2.40;;;-1.90;99.90;;;;;;4973413;28;20023;-85
2021/12/26 03:09:22;;;;;;;8.30;3.88;;;-1.90;99.90;;;;;;5000938;28;20037;-85
2021/12/26 03:11:49;;;;;;;5.72;2.60;;;-1.80;99.90;;;;;;4986512;28;20109;-85
2021/12/26 03:14:15;;;;;;;5.45;3.40;;;-1.90;99.90;;;;;;4988472;28;20109;-85
2021/12/26 03:16:50;;;;;;;7.03;3.10;;;-1.90;99.90;;;;;;4982200;28;20130;-85
2021/12/26 03:19:15;;;;;;;5.40;2.70;;;-1.90;99.90;;;;;;4981738;28;20081;-85
2021/12/26 03:21:41;;;;;;;6.07;2.83;;;-1.90;99.90;;;;;;4977211;28;20030;-85
2021/12/26 03:24:06;;;;;;;4.70;2.60;;;-1.90;99.90;;;;;;4997183;28;20026;-84
2021/12/26 03:26:32;;;;;;;5.82;3.40;;;-1.90;99.90;;;;;;5008889;28;20119;-85
2021/12/26 03:28:58;;;;;;;5.28;2.90;;;-1.90;99.90;;;;;;4984867;28;20027;-85
2021/12/26 03:31:23;;;;;;;6.50;3.20;;;-1.90;99.90;;;;;;4981681;28;20465;-85
2021/12/26 03:33:49;;;;;;;6.97;3.28;;;-1.90;99.90;;;;;;4993507;28;20026;-85
2021/12/26 03:36:14;;;;;;;5.78;3.22;;;-1.80;99.90;;;;;;4983812;28;20034;-85
2021/12/26 03:38:40;;;;;;;4.30;2.83;;;-1.80;99.90;;;;;;4986808;28;20040;-85
2021/12/26 03:41:05;;;;;;;4.35;2.95;;;-1.80;99.90;;;;;;4984671;28;20061;-85
2021/12/26 03:43:31;;;;;;;5.25;2.75;;;-1.80;99.90;;;;;;4969479;28;20043;-84
2021/12/26 03:45:57;;;;;;;3.72;2.60;;;-1.90;99.90;;;;;;4986138;28;20042;-84
2021/12/26 03:48:23;;;;;;;5.90;3.15;;;-1.80;99.90;;;;;;4978602;28;20060;-84
2021/12/26 03:50:48;;;;;;;4.00;2.80;;;-1.80;99.90;;;;;;4979885;28;20045;-85
2021/12/26 03:53:14;;;;;;;4.55;2.67;;;-1.80;99.90;;;;;;4955039;28;20042;-85
2021/12/26 03:55:40;;;;;;;4.70;3.10;;;-1.80;99.90;;;;;;4993706;28;20096;-84
2021/12/26 03:58:07;;;;;;;6.30;3.47;;;-1.80;99.90;;;;;;4998376;28;20034;-85
2021/12/26 04:00:33;;;;;;;5.03;2.72;;;-1.80;99.90;;;;;;4991588;28;20057;-85
2021/12/26 04:02:58;;;;;;;5.63;3.08;;;-1.80;99.90;;;;;;4957927;28;20076;-85
2021/12/26 04:05:24;;;;;;;5.50;3.17;;;-1.80;99.90;;;;;;4966578;28;20084;-85
2021/12/26 04:07:49;;;;;;;4.90;3.17;;;-1.70;99.90;;;;;;4999981;28;20125;-85
2021/12/26 04:10:15;;;;;;;4.05;2.67;;;-1.80;99.90;;;;;;4968341;28;20031;-85
2021/12/26 04:12:46;;;;;;;4.75;2.95;;;-1.80;99.90;;;;;;4984961;28;20034;-84
2021/12/26 04:15:12;;;;;;;4.70;2.83;;;-1.70;99.90;;;;;;4968391;28;22745;-85
2021/12/26 04:17:38;;;;;;;5.75;2.55;;;-1.80;99.90;;;;;;4980852;28;20895;-84
2021/12/26 04:20:06;;;;;;;4.32;2.80;;;-1.80;99.90;;;;;;5001441;28;20049;-85
2021/12/26 04:22:31;;;;;;;4.88;3.20;;;-1.80;99.90;;;;;;4966545;28;20042;-85
2021/12/26 04:24:57;;;;;;;3.45;2.50;;;-1.80;99.90;;;;;;4973421;28;20045;-85
2021/12/26 04:27:24;;;;;;;5.38;2.88;;;-1.80;99.90;;;;;;4974200;28;20450;-85
2021/12/26 04:29:52;;;;;;;5.80;2.92;;;-1.70;99.90;;;;;;4988657;28;20528;-85
2021/12/26 04:32:18;;;;;;;4.70;2.65;;;-1.70;99.90;;;;;;4984132;28;20058;-85
2021/12/26 04:34:43;;;;;;;6.95;2.90;;;-1.70;99.90;;;;;;4971604;28;20457;-85
2021/12/26 04:37:09;;;;;;;4.65;2.78;;;-1.70;99.90;;;;;;4995827;28;20026;-85
2021/12/26 04:39:35;;;;;;;4.57;3.00;;;-1.70;99.90;;;;;;4975086;28;20048;-84
2021/12/26 04:42:00;;;;;;;5.03;2.50;;;-1.70;99.90;;;;;;4967938;28;20027;-85
2021/12/26 04:44:27;;;;;;;3.70;2.55;;;-1.70;99.90;;;;;;4979226;28;20034;-84
2021/12/26 04:46:53;;;;;;;4.47;2.40;;;-1.70;99.90;;;;;;4953612;28;20026;-85
2021/12/26 04:49:18;;;;;;;4.43;2.25;;;-1.70;99.90;;;;;;4982890;28;20038;-85
2021/12/26 04:51:44;;;;;;;4.40;2.78;;;-1.70;99.90;;;;;;4971604;28;20104;-85
2021/12/26 04:54:10;;;;;;;4.88;2.53;;;-1.70;99.90;;;;;;4982905;28;20036;-85
2021/12/26 04:56:35;;;;;;;5.63;3.33;;;-1.70;99.90;;;;;;4987189;28;20061;-85
2021/12/26 04:59:01;;;;;;;5.03;3.38;;;-1.70;99.90;;;;;;4965255;28;20019;-85
2021/12/26 05:01:26;;;;;;;5.88;3.28;;;-1.70;99.90;;;;;;5002959;28;20023;-85
2021/12/26 05:03:52;;;;;;;5.45;3.47;;;-1.70;99.90;;;;;;4984400;28;20399;-85
2021/12/26 05:06:17;;;;;;;5.80;2.80;;;-1.70;99.90;;;;;;4982415;28;20080;-85
2021/12/26 05:08:43;;;;;;;5.10;2.53;;;-1.70;99.90;;;;;;4988667;28;20038;-84
2021/12/26 05:11:08;;;;;;;7.93;2.83;;;-1.70;99.90;;;;;;4976172;28;20033;-84
2021/12/26 05:13:34;;;;;;;4.53;2.67;;;-1.70;99.90;;;;;;4985212;28;20061;-84
2021/12/26 05:16:00;;;;;;;3.08;2.58;;;-1.70;99.90;;;;;;4998967;28;20486;-84
2021/12/26 05:18:25;;;;;;;3.50;2.50;;;-1.70;99.90;;;;;;5010268;28;20030;-84
2021/12/26 05:20:51;;;;;;;4.15;2.72;;;-1.70;99.90;;;;;;4971855;28;20529;-86
2021/12/26 05:23:16;;;;;;;6.38;2.72;;;-1.70;99.90;;;;;;4978767;28;20038;-85
2021/12/26 05:25:42;;;;;;;5.00;2.75;;;-1.70;99.90;;;;;;4968102;28;20030;-86
2021/12/26 05:28:07;;;;;;;6.07;3.03;;;-1.60;99.90;;;;;;4964471;28;20039;-83
2021/12/26 05:30:33;;;;;;;5.50;2.92;;;-1.60;99.90;;;;;;4980295;28;20034;-84
2021/12/26 05:32:59;;;;;;;3.28;2.40;;;-1.60;99.90;;;;;;4967253;28;20549;-83
2021/12/26 05:35:24;;;;;;;5.18;2.95;;;-1.70;99.90;;;;;;4988981;28;20027;-83
2021/12/26 05:37:50;;;;;;;5.20;2.80;;;-1.70;99.90;;;;;;4980985;28;20375;-83
2021/12/26 05:40:15;;;;;;;4.65;2.92;;;-1.60;99.90;;;;;;4962648;28;20485;-83
2021/12/26 05:42:44;;;;;;;5.30;2.70;;;-1.60;99.90;;;;;;4976558;28;20506;-83
2021/12/26 05:45:10;;;;;;;4.00;2.63;;;-1.60;99.90;;;;;;4978465;28;20552;-83
2021/12/26 05:47:35;;;;;;;5.40;2.78;;;-1.60;99.90;;;;;;4976859;28;20051;-83
2021/12/26 05:50:02;;;;;;;5.53;2.30;;;-1.60;99.90;;;;;;4997095;28;20083;-83
2021/12/26 05:52:27;;;;;;;9.07;2.42;;;-1.60;99.90;;;;;;4970643;28;20075;-83
2021/12/26 05:54:53;;;;;;;6.07;2.95;;;-1.60;99.90;;;;;;4968671;28;20058;-84
2021/12/26 05:57:18;;;;;;;5.85;2.88;;;-1.60;99.90;;;;;;4978217;28;20042;-84
2021/12/26 05:59:44;;;;;;;5.38;2.50;;;-1.60;99.90;;;;;;4990666;28;20093;-84
2021/12/26 06:02:10;;;;;;;6.55;3.10;;;-1.60;99.90;;;;;;4985386;28;20030;-84
2021/12/26 06:04:35;;;;;;;4.25;2.55;;;-1.60;99.90;;;;;;4967591;28;20037;-84
2021/12/26 06:07:01;;;;;;;8.60;3.08;;;-1.60;99.90;;;;;;4989940;28;20027;-83
2021/12/26 06:09:26;;;;;;;5.53;3.03;;;-1.60;99.90;;;;;;4992356;28;20548;-83
2021/12/26 06:11:52;;;;;;;3.53;2.38;;;-1.60;99.90;;;;;;4979444;28;20050;-84
2021/12/26 06:14:17;;;;;;;4.70;2.88;;;-1.60;99.90;;;;;;4969538;28;20023;-83
2021/12/26 06:16:43;;;;;;;3.65;2.25;;;-1.60;99.90;;;;;;4962699;28;20052;-84
2021/12/26 06:19:08;;;;;;;4.53;2.65;;;-1.60;99.90;;;;;;4953271;28;20117;-84
2021/12/26 06:21:34;;;;;;;4.60;2.78;;;-1.60;99.90;;;;;;4971069;28;20034;-83
2021/12/26 06:24:00;;;;;;;5.35;2.70;;;-1.60;99.90;;;;;;4949970;28;20062;-83
2021/12/26 06:26:26;;;;;;;4.35;2.63;;;-1.60;99.90;;;;;;4983954;28;20978;-83
2021/12/26 06:28:51;;;;;;;4.25;2.60;;;-1.60;99.90;;;;;;4971938;28;20100;-84
2021/12/26 06:31:17;;;;;;;5.60;2.45;;;-1.60;99.90;;;;;;4977118;28;20045;-84
2021/12/26 06:33:42;;;;;;;4.15;2.50;;;-1.50;99.90;;;;;;5001651;28;20041;-84
2021/12/26 06:36:08;;;;;;;4.03;2.30;;;-1.50;99.90;;;;;;4984989;28;20030;-83
2021/12/26 06:38:35;;;;;;;4.13;2.42;;;-1.50;99.90;;;;;;4979228;28;20942;-84
2021/12/26 06:41:01;;;;;;;4.68;3.15;;;-1.50;99.90;;;;;;4982148;28;20124;-83
2021/12/26 06:43:26;;;;;;;5.72;2.70;;;-1.50;99.90;;;;;;4996285;28;20150;-84
2021/12/26 06:45:53;;;;;;;4.72;2.72;;;-1.50;99.90;;;;;;4999514;28;20193;-84
2021/12/26 06:48:19;;;;;;;4.43;2.85;;;-1.50;99.90;;;;;;4972106;28;20038;-83
2021/12/26 06:50:45;;;;;;;4.50;2.90;;;-1.50;99.90;;;;;;4989248;28;20490;-83
2021/12/26 06:53:11;;;;;;;4.68;2.45;;;-1.50;99.90;;;;;;4984128;28;20058;-84
2021/12/26 06:55:37;;;;;;;4.20;3.10;;;-1.50;99.90;;;;;;4991104;28;20494;-84
2021/12/26 06:58:02;;;;;;;4.70;2.97;;;-1.50;99.90;;;;;;4983445;28;20125;-84
2021/12/26 07:00:28;;;;;;;5.13;2.58;;;-1.40;99.90;;;;;;4989099;28;20037;-84
2021/12/26 07:02:54;;;;;;;6.78;3.22;;;-1.40;99.90;;;;;;4964184;28;20038;-84
2021/12/26 07:05:19;;;;;;;4.68;2.88;;;-1.50;99.90;;;;;;4977269;28;20072;-84
2021/12/26 07:07:46;;;;;;;4.07;2.40;;;-1.50;99.90;;;;;;4987600;28;20090;-86
2021/12/26 07:10:11;;;;;;;5.65;2.60;;;-1.50;99.90;;;;;;4995515;28;20113;-85
2021/12/26 07:12:37;;;;;;;4.15;2.72;;;-1.40;99.90;;;;;;4953724;28;20138;-84
2021/12/26 07:15:06;;;;;;;5.13;2.30;;;-1.40;99.90;;;;;;4986655;28;20030;-86
2021/12/26 07:17:31;;;;;;;4.10;2.63;;;-1.40;99.90;;;;;;4991664;28;20037;-84
2021/12/26 07:19:57;;;;;;;3.38;2.28;;;-1.40;99.90;;;;;;4967588;28;20035;-84
2021/12/26 07:22:32;;;;;;;4.75;2.60;;;-1.40;99.90;;;;;;4980788;28;20034;-84
2021/12/26 07:25:19;;;;;;;8.27;3.28;;;-1.40;99.90;;;;;;4979120;28;20035;-83
2021/12/26 07:27:44;;;;;;;5.63;3.30;;;-1.40;99.90;;;;;;4976908;28;20033;-84
2021/12/26 07:30:19;;;;;;;6.30;3.25;;;-1.40;99.90;;;;;;4955494;28;20134;-84
2021/12/26 07:32:45;;;;;;;5.75;2.75;;;-1.40;99.90;;;;;;4983330;28;20037;-84
2021/12/26 07:35:54;;;;;;;4.72;2.70;;;-1.40;99.90;;;;;;4977012;28;20659;-85
2021/12/26 07:38:19;;;;;;;5.10;3.10;;;-1.40;99.90;;;;;;4991935;28;20031;-85
2021/12/26 07:40:46;;;;;;;5.25;2.35;;;-1.40;99.90;;;;;;4978025;28;20041;-85
2021/12/26 07:43:12;;;;;;;5.57;3.08;;;-1.40;99.90;;;;;;4967969;28;20049;-84
2021/12/26 07:45:38;;;;;;;4.35;2.72;;;-1.30;99.90;;;;;;4989007;28;20046;-84
2021/12/26 07:48:03;;;;;;;4.32;2.90;;;-1.40;99.90;;;;;;4968474;28;20402;-83
2021/12/26 07:50:29;;;;;;;4.57;3.00;;;-1.30;99.90;;;;;;4964651;28;20046;-84
2021/12/26 07:52:59;;;;;;;5.68;2.67;;;-1.30;99.90;;;;;;4996191;28;20100;-84
2021/12/26 07:55:24;;;;;;;3.72;2.55;;;-1.30;99.90;;;;;;4966583;28;20549;-85
2021/12/26 07:57:50;;;;;;;4.32;2.80;;;-1.30;99.90;;;;;;4963983;28;20141;-84
2021/12/26 08:00:17;;;;;;;8.27;3.58;;;-1.30;99.90;;;;;;4971236;28;20065;-83
2021/12/26 08:02:42;;;;;;;4.72;3.08;;;-1.30;99.90;;;;;;4983291;28;20035;-83
2021/12/26 08:05:08;;;;;;;5.20;3.25;;;-1.30;99.90;;;;;;4985665;28;20041;-84
2021/12/26 08:07:34;;;;;;;5.25;3.13;;;-1.30;99.90;;;;;;4987849;28;20117;-83
2021/12/26 08:10:00;;;;;;;6.82;3.53;;;-1.20;99.90;;;;;;4971997;28;20382;-83
2021/12/26 08:12:27;;;;;;;7.53;3.40;;;-1.20;99.90;;;;;;4976570;28;20379;-84
2021/12/26 08:14:53;;;;;;;4.95;3.30;;;-1.10;99.90;;;;;;4987335;28;20046;-84
2021/12/26 08:17:38;;;;;;;4.68;3.03;;;-1.10;99.90;;;;;;4969422;28;20042;-84
2021/12/26 08:20:04;;;;;;;5.25;3.53;;;-1.10;99.90;;;;;;4982227;28;20034;-83
2021/12/26 08:22:30;;;;;;;4.68;3.05;;;-1.10;99.90;;;;;;4954432;28;20702;-83
2021/12/26 08:24:56;;;;;;;3.88;3.22;;;-1.00;99.90;;;;;;4972560;28;20045;-87
2021/12/26 08:27:24;;;;;;;4.78;3.15;;;-1.00;99.90;;;;;;4967116;28;20049;-84
2021/12/26 08:29:49;;;;;;;5.05;3.30;;;-1.00;99.90;;;;;;4972183;28;20030;-83
2021/12/26 08:32:17;;;;;;;5.00;3.10;;;-1.00;99.90;;;;;;4981019;28;20062;-83
2021/12/26 08:34:43;;;;;;;5.57;3.45;;;-1.00;99.90;;;;;;4975824;28;20483;-84
2021/12/26 08:37:09;;;;;;;5.03;3.30;;;-1.00;99.90;;;;;;4998841;28;20093;-83
2021/12/26 08:39:36;;;;;;;8.40;3.10;;;-1.00;99.90;;;;;;4951879;28;20434;-84
2021/12/26 08:42:02;;;;;;;6.22;3.60;;;-0.90;99.90;;;;;;4967853;28;20120;-83
2021/12/26 08:44:28;;;;;;;5.78;3.40;;;-0.80;99.90;;;;;;4970332;28;20038;-83
2021/12/26 08:46:54;;;;;;;5.18;2.88;;;-0.80;99.90;;;;;;4998097;28;20035;-83
2021/12/26 08:49:19;;;;;;;7.03;3.88;;;-0.80;99.90;;;;;;4978355;28;20104;-82
2021/12/26 08:51:45;;;;;;;7.85;3.08;;;-0.80;99.90;;;;;;4998764;28;20031;-83
2021/12/26 08:54:11;;;;;;;5.55;3.55;;;-0.70;99.90;;;;;;4990818;28;20031;-83
2021/12/26 08:56:36;;;;;;;6.47;3.75;;;-0.70;99.90;;;;;;4960130;28;20038;-82
2021/12/26 08:59:02;;;;;;;5.43;3.38;;;-0.70;99.90;;;;;;4980899;28;20435;-82
2021/12/26 09:01:28;;;;;;;6.30;3.42;;;-0.60;99.90;;;;;;4988545;28;20057;-88
2021/12/26 09:03:53;;;;;;;7.88;3.97;;;-0.60;99.90;;;;;;4980750;28;20441;-87
2021/12/26 09:06:19;;;;;;;6.38;3.63;;;-0.50;99.90;;;;;;4951504;28;20470;-87
2021/12/26 09:08:44;;;;;;;4.38;3.28;;;-0.50;99.90;;;;;;4977544;28;20049;-87
2021/12/26 09:11:11;;;;;;;6.13;3.75;;;-0.50;99.90;;;;;;4986388;28;20034;-88
2021/12/26 09:13:37;;;;;;;6.35;3.97;;;-0.40;99.90;;;;;;4992329;28;20046;-88
2021/12/26 09:16:03;;;;;;;6.57;4.18;;;-0.40;99.90;;;;;;4969222;28;20506;-87
2021/12/26 09:18:28;;;;;;;5.45;3.80;;;-0.40;99.90;;;;;;4994153;28;20048;-88
2021/12/26 09:20:54;;;;;;;6.80;3.58;;;-0.40;99.90;;;;;;4979756;28;20561;-87
2021/12/26 09:27:18;;;;;;;8.23;4.03;;;-0.20;99.90;;;;;;4993928;28;20104;-87
2021/12/26 09:29:44;;;;;;;6.43;3.83;;;-0.10;99.90;;;;;;4987826;28;20514;-88
2021/12/26 09:32:10;;;;;;;7.25;4.53;;;-0.10;99.90;;;;;;4979391;28;20023;-87
2021/12/26 09:34:36;;;;;;;8.40;6.43;;;0.00;99.90;;;;;;4986253;28;20034;-87
2021/12/26 09:37:03;;;;;;;7.97;4.10;;;0.00;99.90;;;;;;4972334;28;20117;-87
2021/12/26 09:39:28;;;;;;;6.60;3.97;;;0.00;99.90;;;;;;4981284;28;20046;-88
2021/12/26 09:41:54;;;;;;;7.80;4.45;;;0.10;99.90;;;;;;4992830;28;20484;-87
2021/12/26 09:44:20;;;;;;;8.80;4.60;;;0.20;99.90;;;;;;4990996;28;20439;-87
2021/12/26 09:46:46;;;;;;;5.80;3.78;;;0.20;99.90;;;;;;4976691;28;20491;-88
2021/12/26 09:49:11;;;;;;;6.57;4.05;;;0.20;99.90;;;;;;4987644;28;20039;-86
2021/12/26 09:51:37;;;;;;;6.38;4.07;;;0.20;99.90;;;;;;4960275;28;20410;-88
2021/12/26 09:54:03;;;;;;;8.00;4.13;;;0.30;99.90;;;;;;4989033;28;20027;-87
2021/12/26 09:56:29;;;;;;;7.50;4.85;;;0.30;99.90;;;;;;4982286;28;20030;-87
2021/12/26 09:59:05;;;;;;;7.53;3.45;;;0.40;99.90;;;;;;4999998;28;20026;-86
2021/12/26 10:01:46;;;;;;;6.28;4.72;;;0.40;99.90;;;;;;4992069;28;20041;-87
2021/12/26 10:04:22;;;;;;;5.20;3.78;;;0.50;99.90;;;;;;4972816;28;20034;-86
2021/12/26 10:06:56;;;;;;;6.82;3.97;;;0.50;99.90;;;;;;4977943;28;20035;-86
2021/12/26 10:09:22;;;;;;;6.30;4.28;;;0.60;99.90;;;;;;4958343;28;20054;-86
2021/12/26 10:11:49;;;;;;;8.35;4.28;;;0.60;99.90;;;;;;4977925;28;20057;-86
2021/12/26 10:14:43;;;;;;;6.55;4.78;;;0.70;99.90;;;;;;4971691;28;20072;-86
2021/12/26 10:17:13;;;;;;;9.20;5.10;;;0.70;99.90;;;;;;4988014;28;20018;-86
2021/12/26 10:19:40;;;;;;;9.88;4.97;;;0.90;99.90;;;;;;4980532;28;20043;-86
2021/12/26 10:22:06;;;;;;;9.45;4.78;;;0.90;99.90;;;;;;5002322;28;20109;-86
2021/12/26 10:24:36;;;;;;;6.75;4.88;;;0.90;99.90;;;;;;4986046;28;20109;-86
2021/12/26 10:27:02;;;;;;;5.32;3.38;;;1.00;99.90;;;;;;4951849;28;20119;-86
2021/12/26 10:29:42;;;;;;;7.03;4.80;;;1.00;99.90;;;;;;4998118;28;20430;-86
2021/12/26 10:32:12;;;;;;;7.07;4.28;;;1.20;99.90;;;;;;5001143;28;20105;-86
2021/12/26 10:34:44;;;;;;;7.47;4.55;;;1.30;99.90;;;;;;4985872;28;20111;-86
2021/12/26 10:40:29;;;;;;;7.90;4.32;;;1.30;99.90;;;;;;4970558;28;20027;-85
2021/12/26 10:42:57;;;;;;;7.80;4.80;;;1.40;99.90;;;;;;4991532;28;20058;-85
2021/12/26 10:45:33;;;;;;;8.50;4.03;;;1.50;99.90;;;;;;4986940;28;20042;-86
2021/12/26 10:47:59;;;;;;;;;;;1.50;99.90;;;;;;4954118;28;20034;-85
2021/12/26 10:50:26;;;;;;;9.07;4.13;;;1.50;99.90;;;;;;4999255;28;19917;-85
2021/12/26 10:52:58;;;;;;;9.32;5.13;;;1.50;99.90;;;;;;4988974;28;20042;-86
2021/12/26 10:55:33;;;;;;;8.68;5.50;;;1.60;99.90;;;;;;4963178;28;20034;-86
2021/12/26 10:58:07;;;;;;;8.05;5.13;;;1.50;99.90;;;;;;4997294;28;20495;-85
2021/12/26 11:00:34;;;;;;;8.52;5.57;;;1.50;99.90;;;;;;4991788;28;20030;-85
2021/12/26 11:03:07;;;;;;;8.85;5.20;;;1.60;99.90;;;;;;4964410;28;20750;-86
2021/12/26 11:05:44;;;;;;;7.68;4.75;;;1.60;99.90;;;;;;4965191;28;20077;-86
2021/12/26 11:08:11;;;;;;;11.82;6.05;;;1.70;99.90;;;;;;4977663;28;20026;-86
2021/12/26 11:10:38;;;;;;;8.68;5.97;;;1.70;99.90;;;;;;4998260;28;20041;-86
2021/12/26 11:13:06;;;;;;;8.13;5.22;;;1.80;99.90;;;;;;4989031;28;20066;-86
2021/12/26 11:15:36;;;;;;;9.25;6.05;;;1.80;99.90;;;;;;4981351;28;20034;-85
2021/12/26 11:18:03;;;;;;;12.85;6.40;;;1.90;99.90;;;;;;4985445;28;20034;-86
2021/12/26 11:20:31;;;;;;;9.68;6.13;;;1.90;99.90;;;;;;4957118;28;20041;-86
2021/12/26 11:22:57;;;;;;;10.93;6.13;;;1.90;99.90;;;;;;5003134;28;20409;-87
2021/12/26 11:25:23;;;;;;;8.45;5.90;;;2.00;99.90;;;;;;4974172;28;20113;-85
2021/12/26 11:27:49;;;;;;;7.63;5.80;;;2.10;99.90;;;;;;4975088;28;20085;-85
2021/12/26 11:30:15;;;;;;;10.00;6.30;;;2.10;99.90;;;;;;4960178;28;20450;-85
2021/12/26 11:32:43;;;;;;;7.70;5.30;;;2.20;99.90;;;;;;4984389;28;20054;-86
2021/12/26 11:35:09;;;;;;;9.93;5.85;;;2.30;99.90;;;;;;4974101;28;20033;-86
2021/12/26 11:37:36;;;;;;;8.32;6.10;;;2.40;99.90;;;;;;4959601;28;20038;-85
2021/12/26 11:40:01;;;;;;;11.63;6.63;;;2.40;99.90;;;;;;4962893;28;20117;-86
2021/12/26 11:42:39;;;;;;;11.55;6.63;;;2.40;99.90;;;;;;4988052;28;20130;-86
2021/12/26 11:45:22;;;;;;;12.35;6.18;;;2.50;99.90;;;;;;4998259;28;22220;-86
2021/12/26 11:48:10;;;;;;;9.90;5.93;;;2.50;99.90;;;;;;4964037;28;20041;-85
2021/12/26 11:51:02;;;;;;;8.95;6.18;;;2.60;99.90;;;;;;5001562;28;20042;-86
2021/12/26 11:53:41;;;;;;;7.82;5.57;;;2.60;99.90;;;;;;4968430;28;20038;-85
2021/12/26 11:56:32;;;;;;;9.52;5.35;;;2.70;99.90;;;;;;5000439;28;20027;-86
2021/12/26 11:59:24;;;;;;;7.88;5.85;;;2.80;99.90;;;;;;4992341;28;20491;-86
2021/12/26 12:01:50;;;;;;;13.05;7.05;;;2.80;99.90;;;;;;4999562;28;20511;-86
2021/12/26 12:04:21;;;;;;;10.40;5.45;;;2.90;99.90;;;;;;4989371;28;20035;-86
2021/12/26 12:06:48;;;;;;;8.40;5.63;;;2.90;99.90;;;;;;4964975;28;20507;-86
2021/12/26 12:09:31;;;;;;;10.68;7.07;;;3.00;99.90;;;;;;4971353;28;20038;-86
2021/12/26 12:11:57;;;;;;;10.13;5.95;;;3.00;99.90;;;;;;5003810;28;20029;-86
2021/12/26 12:14:46;;;;;;;11.32;7.43;;;3.10;99.90;;;;;;4995691;28;20031;-85
2021/12/26 12:17:19;;;;;;;11.18;6.53;;;3.10;99.90;;;;;;4986039;28;20029;-86
2021/12/26 12:20:17;;;;;;;11.65;7.13;;;3.20;99.90;;;;;;4986739;28;20046;-86
2021/12/26 12:23:09;;;;;;;9.02;6.68;;;3.20;99.90;;;;;;5022861;28;20117;-86
2021/12/26 12:25:41;;;;;;;9.48;6.47;;;3.20;99.90;;;;;;4986397;28;20049;-86
2021/12/26 12:28:18;;;;;;;10.25;5.88;;;3.20;99.90;;;;;;4993983;28;20038;-86
2021/12/26 12:30:55;;;;;;;9.20;6.28;;;3.30;99.90;;;;;;4989566;28;20113;-86
2021/12/26 12:33:25;;;;;;;11.43;8.10;;;3.30;99.90;;;;;;5014332;28;20491;-86
2021/12/26 12:36:01;;;;;;;12.18;7.47;;;3.30;99.90;;;;;;4992261;28;20022;-86
2021/12/26 12:38:39;;;;;;;13.75;8.38;;;3.30;99.90;;;;;;4991635;28;20030;-85
2021/12/26 12:41:08;;;;;;;12.25;7.28;;;3.30;99.90;;;;;;4965630;28;20598;-86
2021/12/26 12:43:45;;;;;;;12.20;7.65;;;3.30;99.90;;;;;;4983803;28;20062;-85
2021/12/26 12:46:11;;;;;;;12.80;8.15;;;3.30;99.90;;;;;;4972613;28;20477;-86
2021/12/26 12:48:44;;;;;;;11.25;6.63;;;3.30;99.90;;;;;;5010681;28;20046;-86
2021/12/26 12:51:15;;;;;;;11.70;7.45;;;3.30;99.90;;;;;;4966166;28;20131;-86
2021/12/26 12:53:41;;;;;;;13.38;9.65;;;3.30;99.90;;;;;;4988159;28;20501;-85
2021/12/26 12:56:35;;;;;;;15.90;9.20;;;3.20;99.90;;;;;;4309647;28;9999850;-85
2021/12/26 12:59:13;;;;;;;12.88;8.15;;;3.20;99.90;;;;;;5002247;28;20269;-86
2021/12/26 13:01:52;;;;;;;13.65;8.38;;;3.20;99.90;;;;;;4991967;28;20147;-86